createdAt,value
2017-11-10T00:01:20.262Z,80.15
2017-11-10T00:07:26.656Z,80.87
2017-11-10T00:13:30.361Z,82.13
2017-11-10T00:19:35.030Z,83.30
2017-11-10T00:25:41.340Z,84.03
2017-11-10T00:44:46.155Z,89.27
2017-11-10T00:50:52.117Z,89.91
2017-11-10T00:56:57.602Z,90.58
2017-11-10T01:03:03.265Z,90.68
2017-11-10T01:09:07.498Z,91.06
2017-11-10T01:15:11.322Z,91.26
2017-11-10T01:21:14.812Z,91.70
2017-11-10T01:27:18.289Z,91.68
2017-11-10T01:33:22.089Z,90.50
2017-11-10T01:39:25.570Z,90.53
2017-11-10T01:45:29.045Z,90.46
2017-11-10T01:51:33.139Z,90.31
2017-11-10T01:57:36.600Z,90.09
2017-11-10T02:03:40.060Z,90.00
2017-11-10T02:09:44.299Z,89.72
2017-11-10T02:15:47.757Z,89.90
2017-11-10T02:21:51.966Z,89.76
2017-11-10T02:27:55.470Z,89.30
2017-11-10T02:33:58.932Z,89.15
2017-11-10T02:40:02.396Z,89.31
2017-11-10T02:46:06.622Z,88.88
2017-11-10T02:52:10.092Z,88.79
2017-11-10T02:58:14.318Z,88.68
2017-11-10T03:04:17.830Z,88.49
2017-11-10T03:10:21.269Z,88.06
2017-11-10T03:16:24.722Z,88.11
2017-11-10T03:22:28.182Z,88.14
2017-11-10T03:28:32.521Z,87.69
2017-11-10T03:34:36.756Z,87.50
2017-11-10T03:40:40.238Z,87.98
2017-11-10T03:46:43.697Z,88.02
2017-11-10T03:52:47.961Z,88.54
2017-11-10T03:58:51.430Z,88.92
2017-11-10T04:04:55.015Z,89.28
2017-11-10T04:10:58.555Z,90.24
2017-11-10T04:17:02.782Z,90.27
2017-11-10T04:23:06.250Z,90.27
2017-11-10T04:29:09.710Z,90.49
2017-11-10T04:35:13.518Z,90.42
2017-11-10T04:41:17.747Z,90.65
2017-11-10T04:47:21.231Z,90.62
2017-11-10T04:53:24.683Z,90.44
2017-11-10T04:59:28.905Z,90.27
2017-11-10T05:05:32.374Z,90.64
2017-11-10T05:11:37.034Z,91.08
2017-11-10T05:17:40.504Z,91.08
2017-11-10T05:23:44.321Z,90.41
2017-11-10T05:29:47.808Z,90.98
2017-11-10T05:35:51.256Z,91.06
2017-11-10T05:41:54.758Z,91.15
2017-11-10T05:47:58.219Z,91.08
2017-11-10T05:54:02.345Z,91.04
2017-11-10T06:00:05.786Z,91.25
2017-11-10T06:06:09.282Z,91.99
2017-11-10T06:12:12.728Z,91.44
2017-11-10T06:18:17.298Z,91.28
2017-11-10T06:24:20.892Z,90.83
2017-11-10T06:30:24.669Z,90.96
2017-11-10T06:36:28.125Z,90.55
2017-11-10T06:42:31.606Z,90.46
2017-11-10T06:48:35.451Z,90.40
2017-11-10T06:54:38.904Z,90.04
2017-11-10T07:00:42.367Z,90.03
2017-11-10T07:06:45.831Z,89.44
2017-11-10T07:12:50.072Z,89.62
2017-11-10T07:18:53.540Z,89.55
2017-11-10T07:24:57.030Z,89.40
2017-11-10T07:31:01.152Z,89.41
2017-11-10T07:37:04.615Z,89.44
2017-11-10T07:43:08.097Z,89.51
2017-11-10T07:49:11.568Z,89.27
2017-11-10T07:55:15.044Z,88.98
2017-11-10T08:01:18.491Z,89.05
2017-11-10T08:07:21.960Z,88.55
2017-11-10T08:13:25.421Z,88.56
2017-11-10T08:19:28.903Z,88.07
2017-11-10T08:25:32.391Z,88.21
2017-11-10T08:31:35.882Z,87.62
2017-11-10T08:37:39.324Z,88.02
2017-11-10T08:43:43.579Z,87.67
2017-11-10T08:49:47.043Z,87.69
2017-11-10T08:55:50.520Z,87.13
2017-11-10T09:01:53.955Z,87.41
2017-11-10T09:07:57.529Z,87.21
2017-11-10T09:14:01.020Z,86.43
2017-11-10T09:20:04.479Z,85.98
2017-11-10T09:26:08.287Z,86.30
2017-11-10T09:32:26.616Z,87.06
2017-11-10T09:38:35.469Z,87.47
2017-11-10T09:51:24.891Z,89.07
2017-11-10T09:57:35.231Z,89.78
2017-11-10T10:10:33.968Z,89.90
2017-11-10T10:23:31.130Z,89.42
2017-11-10T10:29:34.631Z,89.20
2017-11-10T10:35:38.100Z,89.51
2017-11-10T10:41:41.590Z,89.96
2017-11-10T10:47:45.081Z,90.12
2017-11-10T10:53:48.574Z,90.17
2017-11-10T10:59:52.057Z,90.39
2017-11-10T11:05:55.555Z,90.70
2017-11-10T11:11:59.078Z,90.93
2017-11-10T11:18:04.926Z,91.26
2017-11-10T11:24:08.422Z,90.70
2017-11-10T11:30:11.913Z,90.66
2017-11-10T11:36:15.441Z,89.92
2017-11-10T11:42:18.938Z,89.67
2017-11-10T11:48:22.425Z,89.82
2017-11-10T11:54:25.896Z,90.22
2017-11-10T12:00:30.289Z,90.21
2017-11-10T12:06:33.779Z,90.15
2017-11-10T12:12:37.267Z,90.45
2017-11-10T12:18:40.735Z,90.92
2017-11-10T12:24:44.203Z,91.55
2017-11-10T12:30:47.710Z,92.02
2017-11-10T12:36:51.199Z,91.80
2017-11-10T12:42:55.087Z,91.91
2017-11-10T12:48:58.580Z,91.57
2017-11-10T12:55:02.092Z,91.29
2017-11-10T13:01:06.330Z,91.87
2017-11-10T13:07:09.836Z,91.85
2017-11-10T13:13:13.338Z,91.83
2017-11-10T13:19:16.825Z,91.21
2017-11-10T13:25:20.312Z,91.09
2017-11-10T13:31:23.812Z,90.91
2017-11-10T13:37:28.101Z,90.94
2017-11-10T13:43:31.885Z,91.01
2017-11-10T13:49:35.383Z,91.20
2017-11-10T13:55:38.896Z,91.53
2017-11-10T14:01:42.479Z,91.86
2017-11-10T14:07:46.719Z,91.92
2017-11-10T14:13:50.220Z,92.05
2017-11-10T14:19:53.864Z,91.91
2017-11-10T14:25:57.362Z,92.19
2017-11-10T14:32:00.872Z,92.26
2017-11-10T14:38:04.369Z,92.54
2017-11-10T14:44:07.862Z,92.76
2017-11-10T14:50:11.370Z,92.68
2017-11-10T14:56:15.629Z,92.90
2017-11-10T15:02:19.120Z,93.06
2017-11-10T15:08:22.622Z,93.17
2017-11-10T15:14:26.875Z,93.03
2017-11-10T15:20:30.383Z,92.67
2017-11-10T15:26:33.865Z,92.87
2017-11-10T15:32:37.504Z,92.42
2017-11-10T15:38:40.997Z,92.67
2017-11-10T15:44:44.847Z,92.84
2017-11-10T15:50:48.359Z,91.91
2017-11-10T15:56:51.854Z,92.34
2017-11-10T16:02:55.331Z,91.31
2017-11-10T16:08:58.837Z,90.97
2017-11-10T16:15:02.339Z,88.37
2017-11-10T16:21:06.533Z,88.45
2017-11-10T16:27:10.035Z,88.40
2017-11-10T16:33:13.522Z,88.82
2017-11-10T16:39:17.014Z,87.93
2017-11-10T16:45:20.549Z,87.37
2017-11-10T16:51:24.026Z,87.86
2017-11-10T16:57:27.518Z,86.32
2017-11-10T17:03:31.023Z,87.82
2017-11-10T17:09:34.505Z,86.32
2017-11-10T17:15:38.346Z,87.77
2017-11-10T17:21:41.869Z,89.09
2017-11-10T17:27:45.367Z,89.58
2017-11-10T17:33:48.866Z,89.68
2017-11-10T17:39:52.370Z,88.96
2017-11-10T17:45:55.877Z,89.08
2017-11-10T17:52:00.168Z,88.68
2017-11-10T17:58:03.962Z,88.03
2017-11-10T18:04:07.421Z,86.84
2017-11-10T18:10:10.909Z,86.67
2017-11-10T18:16:14.379Z,85.04
2017-11-10T18:22:17.901Z,83.17
2017-11-10T18:28:22.162Z,83.46
2017-11-10T18:34:25.660Z,83.77
2017-11-10T18:40:29.153Z,84.37
2017-11-10T18:46:32.679Z,84.39
2017-11-10T18:52:36.921Z,83.80
2017-11-10T18:58:40.443Z,82.92
2017-11-10T19:04:43.919Z,82.87
2017-11-10T19:10:47.390Z,82.48
2017-11-10T19:16:50.880Z,82.28
2017-11-10T19:22:55.128Z,81.94
2017-11-10T19:28:58.629Z,80.92
2017-11-10T19:35:02.140Z,82.57
2017-11-10T19:41:05.634Z,82.59
2017-11-10T19:47:09.165Z,82.44
2017-11-10T19:53:12.708Z,83.16
2017-11-10T19:59:16.202Z,84.11
2017-11-10T20:05:19.680Z,84.35
2017-11-10T20:11:23.161Z,82.43
2017-11-10T20:17:26.678Z,84.48
2017-11-10T20:23:30.194Z,88.68
2017-11-10T20:29:33.661Z,90.02
2017-11-10T20:35:37.501Z,91.03
2017-11-10T20:41:41.026Z,91.38
2017-11-10T20:47:44.866Z,92.29
2017-11-10T20:53:48.349Z,93.26
2017-11-10T20:59:51.854Z,93.71
2017-11-10T21:05:55.336Z,93.99
2017-11-10T21:11:58.832Z,93.71
2017-11-10T21:18:03.086Z,93.31
2017-11-10T21:24:06.583Z,92.81
2017-11-10T21:30:10.076Z,89.30
2017-11-10T21:36:13.550Z,85.34
2017-11-10T21:42:17.486Z,85.73
2017-11-10T21:48:21.756Z,87.09
2017-11-10T21:54:25.248Z,87.74
2017-11-10T22:00:28.752Z,87.28
2017-11-10T22:06:32.803Z,88.05
2017-11-10T22:12:36.323Z,88.26
2017-11-10T22:18:39.800Z,89.02
2017-11-10T22:24:43.320Z,90.69
2017-11-10T22:30:47.909Z,91.70
2017-11-10T22:36:51.428Z,91.39
2017-11-10T22:42:54.922Z,91.40
2017-11-10T22:48:58.764Z,90.73
2017-11-10T22:55:02.263Z,90.87
2017-11-10T23:01:06.540Z,91.21
2017-11-10T23:07:10.019Z,92.03
2017-11-10T23:13:13.533Z,92.27
2017-11-10T23:19:17.011Z,91.73
2017-11-10T23:25:20.510Z,91.28
2017-11-10T23:31:23.991Z,90.80
2017-11-10T23:37:27.752Z,86.87
2017-11-10T23:43:31.309Z,85.94
2017-11-10T23:49:34.828Z,86.33
2017-11-10T23:55:39.079Z,84.54
